Terminal Aerodrome Forecast
Issued by NWS Boston, MA

Home | Current Version | Previous Version | Text Only | Print | Product List | Glossary On
Versions: 1 2 3 4 5 6 7 8 9 10 11 12 13 14 15 16 17 18 19 20 21 22 23
000
FTUS41 KBOX 160539
TAFBDL
TAF
KBDL 160539Z 1606/1712 32014G25KT 2SM -SNPL SCT010 OVC035
     FM160800 32012G22KT 6SM -SN OVC035
     FM160900 32012G22KT P6SM BKN150
     FM161800 34010G21KT P6SM SKC
     FM162200 34009KT P6SM SKC
     FM170100 35005KT P6SM SKC=

USA.gov is the U.S. government's official web portal to all federal, state and local government web resources and services.